sensor_id;sensor_type;location;lat;lon;timestamp;temperature;humidity
18169;DHT22;49877;50.398;30.324;2022-10-04T00:01:07;8.20;99.90
18169;DHT22;49877;50.398;30.324;2022-10-04T00:03:40;8.30;99.90
18169;DHT22;49877;50.398;30.324;2022-10-04T00:06:14;8.30;99.90
18169;DHT22;49877;50.398;30.324;2022-10-04T00:08:47;8.30;99.90
18169;DHT22;49877;50.398;30.324;2022-10-04T00:11:19;8.30;99.90
18169;DHT22;49877;50.398;30.324;2022-10-04T00:13:50;8.30;99.90
18169;DHT22;49877;50.398;30.324;2022-10-04T00:16:21;8.30;99.90
18169;DHT22;49877;50.398;30.324;2022-10-04T00:19:00;8.30;99.90
18169;DHT22;49877;50.398;30.324;2022-10-04T00:22:18;8.30;99.90
18169;DHT22;49877;50.398;30.324;2022-10-04T00:25:18;8.30;99.90
18169;DHT22;49877;50.398;30.324;2022-10-04T00:28:14;8.30;99.90
18169;DHT22;49877;50.398;30.324;2022-10-04T00:30:42;8.30;99.90
18169;DHT22;49877;50.398;30.324;2022-10-04T00:33:08;8.30;99.90
18169;DHT22;49877;50.398;30.324;2022-10-04T00:35:47;8.40;99.90
18169;DHT22;49877;50.398;30.324;2022-10-04T00:38:16;8.30;99.90
18169;DHT22;49877;50.398;30.324;2022-10-04T00:40:54;8.30;99.90
18169;DHT22;49877;50.398;30.324;2022-10-04T00:43:27;8.30;99.90
18169;DHT22;49877;50.398;30.324;2022-10-04T00:45:58;8.30;99.90
18169;DHT22;49877;50.398;30.324;2022-10-04T00:48:34;8.30;99.90
18169;DHT22;49877;50.398;30.324;2022-10-04T00:51:08;8.30;99.90
18169;DHT22;49877;50.398;30.324;2022-10-04T00:53:47;8.30;99.90
18169;DHT22;49877;50.398;30.324;2022-10-04T00:56:21;8.30;99.90
18169;DHT22;49877;50.398;30.324;2022-10-04T01:01:53;8.30;99.90
18169;DHT22;49877;50.398;30.324;2022-10-04T01:04:34;8.30;99.90
18169;DHT22;49877;50.398;30.324;2022-10-04T01:07:03;8.30;99.90
18169;DHT22;49877;50.398;30.324;2022-10-04T01:09:35;8.30;99.90
18169;DHT22;49877;50.398;30.324;2022-10-04T01:12:05;8.30;99.90
18169;DHT22;49877;50.398;30.324;2022-10-04T01:14:41;8.30;99.90
18169;DHT22;49877;50.398;30.324;2022-10-04T01:17:09;8.40;99.90
18169;DHT22;49877;50.398;30.324;2022-10-04T01:19:37;8.30;99.90
18169;DHT22;49877;50.398;30.324;2022-10-04T01:22:11;8.40;99.90
18169;DHT22;49877;50.398;30.324;2022-10-04T01:24:42;8.40;99.90
18169;DHT22;49877;50.398;30.324;2022-10-04T01:27:32;8.40;99.90
18169;DHT22;49877;50.398;30.324;2022-10-04T01:30:01;8.40;99.90
18169;DHT22;49877;50.398;30.324;2022-10-04T01:32:30;8.40;99.90
18169;DHT22;49877;50.398;30.324;2022-10-04T01:34:57;8.40;99.90
18169;DHT22;49877;50.398;30.324;2022-10-04T01:37:24;8.40;99.90
18169;DHT22;49877;50.398;30.324;2022-10-04T01:39:52;8.50;99.90
18169;DHT22;49877;50.398;30.324;2022-10-04T01:42:23;8.50;99.90
18169;DHT22;49877;50.398;30.324;2022-10-04T01:44:55;8.50;99.90
18169;DHT22;49877;50.398;30.324;2022-10-04T01:47:26;8.50;99.90
18169;DHT22;49877;50.398;30.324;2022-10-04T01:49:55;8.50;99.90
18169;DHT22;49877;50.398;30.324;2022-10-04T01:52:28;8.50;99.90
18169;DHT22;49877;50.398;30.324;2022-10-04T01:55:02;8.50;99.90
18169;DHT22;49877;50.398;30.324;2022-10-04T01:57:33;8.50;99.90
18169;DHT22;49877;50.398;30.324;2022-10-04T02:00:03;8.50;99.90
18169;DHT22;49877;50.398;30.324;2022-10-04T02:02:35;8.60;99.90
18169;DHT22;49877;50.398;30.324;2022-10-04T02:05:09;8.50;99.90
18169;DHT22;49877;50.398;30.324;2022-10-04T02:07:38;8.60;99.90
18169;DHT22;49877;50.398;30.324;2022-10-04T02:10:09;8.60;99.90
18169;DHT22;49877;50.398;30.324;2022-10-04T02:12:43;8.60;99.90
18169;DHT22;49877;50.398;30.324;2022-10-04T02:15:12;8.60;99.90
18169;DHT22;49877;50.398;30.324;2022-10-04T02:17:41;8.70;99.90
18169;DHT22;49877;50.398;30.324;2022-10-04T02:20:13;8.60;99.90
18169;DHT22;49877;50.398;30.324;2022-10-04T02:22:41;8.60;99.90
18169;DHT22;49877;50.398;30.324;2022-10-04T02:25:12;8.60;99.90
18169;DHT22;49877;50.398;30.324;2022-10-04T02:27:39;8.60;99.90
18169;DHT22;49877;50.398;30.324;2022-10-04T02:30:09;8.70;99.90
18169;DHT22;49877;50.398;30.324;2022-10-04T02:32:38;8.60;99.90
18169;DHT22;49877;50.398;30.324;2022-10-04T02:35:26;8.70;99.90
18169;DHT22;49877;50.398;30.324;2022-10-04T02:38:00;8.60;99.90
18169;DHT22;49877;50.398;30.324;2022-10-04T02:40:31;8.70;99.90
18169;DHT22;49877;50.398;30.324;2022-10-04T02:43:01;8.70;99.90
18169;DHT22;49877;50.398;30.324;2022-10-04T02:45:37;8.70;99.90
18169;DHT22;49877;50.398;30.324;2022-10-04T02:48:13;8.60;99.90
18169;DHT22;49877;50.398;30.324;2022-10-04T02:50:45;8.60;99.90
18169;DHT22;49877;50.398;30.324;2022-10-04T02:53:20;8.60;99.90
18169;DHT22;49877;50.398;30.324;2022-10-04T02:55:49;8.50;99.90
18169;DHT22;49877;50.398;30.324;2022-10-04T02:58:18;8.50;99.90
18169;DHT22;49877;50.398;30.324;2022-10-04T03:00:48;8.50;99.90
18169;DHT22;49877;50.398;30.324;2022-10-04T03:03:20;8.50;99.90
18169;DHT22;49877;50.398;30.324;2022-10-04T03:05:58;8.50;99.90
18169;DHT22;49877;50.398;30.324;2022-10-04T03:08:28;8.50;99.90
18169;DHT22;49877;50.398;30.324;2022-10-04T03:10:58;8.50;99.90
18169;DHT22;49877;50.398;30.324;2022-10-04T03:13:28;8.50;99.90
18169;DHT22;49877;50.398;30.324;2022-10-04T03:15:56;8.50;99.90
18169;DHT22;49877;50.398;30.324;2022-10-04T03:18:23;8.50;99.90
18169;DHT22;49877;50.398;30.324;2022-10-04T03:20:49;8.50;99.90
18169;DHT22;49877;50.398;30.324;2022-10-04T03:23:18;8.50;99.90
18169;DHT22;49877;50.398;30.324;2022-10-04T03:25:50;8.50;99.90
18169;DHT22;49877;50.398;30.324;2022-10-04T03:28:19;8.50;99.90
18169;DHT22;49877;50.398;30.324;2022-10-04T03:30:46;8.50;99.90
18169;DHT22;49877;50.398;30.324;2022-10-04T03:33:17;8.50;99.90
18169;DHT22;49877;50.398;30.324;2022-10-04T03:35:48;8.40;99.90
18169;DHT22;49877;50.398;30.324;2022-10-04T03:38:16;8.40;99.90
18169;DHT22;49877;50.398;30.324;2022-10-04T03:40:48;8.40;99.90
18169;DHT22;49877;50.398;30.324;2022-10-04T03:43:20;8.40;99.90
18169;DHT22;49877;50.398;30.324;2022-10-04T03:45:49;8.40;99.90
18169;DHT22;49877;50.398;30.324;2022-10-04T03:48:24;8.40;99.90
18169;DHT22;49877;50.398;30.324;2022-10-04T03:50:53;8.40;99.90
18169;DHT22;49877;50.398;30.324;2022-10-04T03:53:27;8.40;99.90
18169;DHT22;49877;50.398;30.324;2022-10-04T03:55:56;8.40;99.90
18169;DHT22;49877;50.398;30.324;2022-10-04T03:58:27;8.40;99.90
18169;DHT22;49877;50.398;30.324;2022-10-04T04:01:10;8.40;99.90
18169;DHT22;49877;50.398;30.324;2022-10-04T04:03:45;8.30;99.90
18169;DHT22;49877;50.398;30.324;2022-10-04T04:06:17;8.30;99.90
18169;DHT22;49877;50.398;30.324;2022-10-04T04:08:47;8.30;99.90
18169;DHT22;49877;50.398;30.324;2022-10-04T04:11:18;8.40;99.90
18169;DHT22;49877;50.398;30.324;2022-10-04T04:13:54;8.40;99.90
18169;DHT22;49877;50.398;30.324;2022-10-04T04:16:24;8.40;99.90
18169;DHT22;49877;50.398;30.324;2022-10-04T04:18:52;8.40;99.90
18169;DHT22;49877;50.398;30.324;2022-10-04T04:21:21;8.30;99.90
18169;DHT22;49877;50.398;30.324;2022-10-04T04:23:52;8.30;99.90
18169;DHT22;49877;50.398;30.324;2022-10-04T04:26:24;8.30;99.90
18169;DHT22;49877;50.398;30.324;2022-10-04T04:28:55;8.30;99.90
18169;DHT22;49877;50.398;30.324;2022-10-04T04:31:25;8.30;99.90
18169;DHT22;49877;50.398;30.324;2022-10-04T04:33:56;8.40;99.90
18169;DHT22;49877;50.398;30.324;2022-10-04T04:36:24;8.40;99.90
18169;DHT22;49877;50.398;30.324;2022-10-04T04:38:50;8.40;99.90
18169;DHT22;49877;50.398;30.324;2022-10-04T04:41:40;8.40;99.90
18169;DHT22;49877;50.398;30.324;2022-10-04T04:44:16;8.40;99.90
18169;DHT22;49877;50.398;30.324;2022-10-04T04:46:44;8.30;99.90
18169;DHT22;49877;50.398;30.324;2022-10-04T04:49:11;8.40;99.90
18169;DHT22;49877;50.398;30.324;2022-10-04T04:51:40;8.40;99.90
18169;DHT22;49877;50.398;30.324;2022-10-04T04:54:11;8.40;99.90
18169;DHT22;49877;50.398;30.324;2022-10-04T04:56:38;8.40;99.90
18169;DHT22;49877;50.398;30.324;2022-10-04T04:59:07;8.40;99.90
18169;DHT22;49877;50.398;30.324;2022-10-04T05:01:41;8.40;99.90
18169;DHT22;49877;50.398;30.324;2022-10-04T05:04:17;8.40;99.90
18169;DHT22;49877;50.398;30.324;2022-10-04T05:06:45;8.50;99.90
18169;DHT22;49877;50.398;30.324;2022-10-04T05:09:21;8.50;99.90
18169;DHT22;49877;50.398;30.324;2022-10-04T05:11:50;8.50;99.90
18169;DHT22;49877;50.398;30.324;2022-10-04T05:14:18;8.50;99.90
18169;DHT22;49877;50.398;30.324;2022-10-04T05:16:49;8.60;99.90
18169;DHT22;49877;50.398;30.324;2022-10-04T05:19:20;8.50;99.90
18169;DHT22;49877;50.398;30.324;2022-10-04T05:21:50;8.60;99.90
18169;DHT22;49877;50.398;30.324;2022-10-04T05:24:23;8.70;99.90
18169;DHT22;49877;50.398;30.324;2022-10-04T05:26:52;8.70;99.90
18169;DHT22;49877;50.398;30.324;2022-10-04T05:29:22;8.70;99.90
18169;DHT22;49877;50.398;30.324;2022-10-04T05:31:59;8.70;99.90
18169;DHT22;49877;50.398;30.324;2022-10-04T05:34:31;8.70;99.90
18169;DHT22;49877;50.398;30.324;2022-10-04T05:37:25;8.70;99.90
18169;DHT22;49877;50.398;30.324;2022-10-04T05:40:03;8.80;99.90
18169;DHT22;49877;50.398;30.324;2022-10-04T05:42:36;8.80;99.90
18169;DHT22;49877;50.398;30.324;2022-10-04T05:45:13;8.80;99.90
18169;DHT22;49877;50.398;30.324;2022-10-04T05:47:44;8.90;99.90
18169;DHT22;49877;50.398;30.324;2022-10-04T05:50:15;9.00;99.90
18169;DHT22;49877;50.398;30.324;2022-10-04T05:52:43;9.00;99.90
18169;DHT22;49877;50.398;30.324;2022-10-04T05:55:20;9.00;99.90
18169;DHT22;49877;50.398;30.324;2022-10-04T05:58:03;9.10;99.90
18169;DHT22;49877;50.398;30.324;2022-10-04T06:00:36;9.10;99.90
18169;DHT22;49877;50.398;30.324;2022-10-04T06:06:15;9.20;99.90
18169;DHT22;49877;50.398;30.324;2022-10-04T06:08:50;9.20;99.90
18169;DHT22;49877;50.398;30.324;2022-10-04T06:11:34;9.30;99.90
18169;DHT22;49877;50.398;30.324;2022-10-04T06:17:47;9.30;99.90
18169;DHT22;49877;50.398;30.324;2022-10-04T06:23:14;9.40;99.90
18169;DHT22;49877;50.398;30.324;2022-10-04T06:25:45;9.40;99.90
18169;DHT22;49877;50.398;30.324;2022-10-04T06:28:17;9.50;99.90
18169;DHT22;49877;50.398;30.324;2022-10-04T06:31:06;9.50;99.90
18169;DHT22;49877;50.398;30.324;2022-10-04T06:33:53;9.60;99.90
18169;DHT22;49877;50.398;30.324;2022-10-04T06:36:32;9.60;99.90
18169;DHT22;49877;50.398;30.324;2022-10-04T06:39:23;9.70;99.90
18169;DHT22;49877;50.398;30.324;2022-10-04T06:42:24;9.70;99.90
18169;DHT22;49877;50.398;30.324;2022-10-04T06:45:17;9.70;99.90
18169;DHT22;49877;50.398;30.324;2022-10-04T06:48:04;9.80;99.90
18169;DHT22;49877;50.398;30.324;2022-10-04T06:50:38;9.80;99.90
18169;DHT22;49877;50.398;30.324;2022-10-04T06:53:14;9.80;99.90
18169;DHT22;49877;50.398;30.324;2022-10-04T06:55:59;9.90;99.90
18169;DHT22;49877;50.398;30.324;2022-10-04T06:58:50;9.90;99.90
18169;DHT22;49877;50.398;30.324;2022-10-04T07:01:26;9.90;99.90
18169;DHT22;49877;50.398;30.324;2022-10-04T07:03:59;9.90;99.90
18169;DHT22;49877;50.398;30.324;2022-10-04T07:06:30;9.90;99.90
18169;DHT22;49877;50.398;30.324;2022-10-04T07:09:02;9.90;99.90
18169;DHT22;49877;50.398;30.324;2022-10-04T07:11:37;9.90;99.90
18169;DHT22;49877;50.398;30.324;2022-10-04T07:14:11;9.90;99.90
18169;DHT22;49877;50.398;30.324;2022-10-04T07:16:43;9.90;99.90
18169;DHT22;49877;50.398;30.324;2022-10-04T07:19:24;10.00;99.90
18169;DHT22;49877;50.398;30.324;2022-10-04T07:21:58;10.00;99.90
18169;DHT22;49877;50.398;30.324;2022-10-04T07:24:37;10.00;99.90
18169;DHT22;49877;50.398;30.324;2022-10-04T07:27:09;10.00;99.90
18169;DHT22;49877;50.398;30.324;2022-10-04T07:29:41;10.00;99.90
18169;DHT22;49877;50.398;30.324;2022-10-04T07:32:15;10.10;99.90
18169;DHT22;49877;50.398;30.324;2022-10-04T07:34:51;10.10;99.90
18169;DHT22;49877;50.398;30.324;2022-10-04T07:37:20;10.10;99.90
18169;DHT22;49877;50.398;30.324;2022-10-04T07:39:53;10.10;99.90
18169;DHT22;49877;50.398;30.324;2022-10-04T07:42:28;10.10;99.90
18169;DHT22;49877;50.398;30.324;2022-10-04T07:45:03;10.10;99.90
18169;DHT22;49877;50.398;30.324;2022-10-04T07:47:31;10.10;99.90
18169;DHT22;49877;50.398;30.324;2022-10-04T07:49:58;10.20;99.90
18169;DHT22;49877;50.398;30.324;2022-10-04T07:52:45;10.20;99.90
18169;DHT22;49877;50.398;30.324;2022-10-04T07:55:25;10.20;99.90
18169;DHT22;49877;50.398;30.324;2022-10-04T08:00:52;10.20;99.90
18169;DHT22;49877;50.398;30.324;2022-10-04T08:03:37;10.20;99.90
18169;DHT22;49877;50.398;30.324;2022-10-04T08:06:10;10.20;99.90
18169;DHT22;49877;50.398;30.324;2022-10-04T08:11:47;10.20;99.90
18169;DHT22;49877;50.398;30.324;2022-10-04T08:14:27;10.30;99.90
18169;DHT22;49877;50.398;30.324;2022-10-04T08:17:13;10.30;99.90
18169;DHT22;49877;50.398;30.324;2022-10-04T08:19:50;10.30;99.90
18169;DHT22;49877;50.398;30.324;2022-10-04T08:22:31;10.40;99.90
18169;DHT22;49877;50.398;30.324;2022-10-04T08:25:08;10.40;99.90
18169;DHT22;49877;50.398;30.324;2022-10-04T08:28:01;10.50;99.90
18169;DHT22;49877;50.398;30.324;2022-10-04T08:31:02;10.60;99.90
18169;DHT22;49877;50.398;30.324;2022-10-04T08:33:54;10.60;99.90
18169;DHT22;49877;50.398;30.324;2022-10-04T08:36:33;10.60;99.90
18169;DHT22;49877;50.398;30.324;2022-10-04T08:39:15;10.60;99.90
18169;DHT22;49877;50.398;30.324;2022-10-04T08:41:59;10.70;99.90
18169;DHT22;49877;50.398;30.324;2022-10-04T08:45:10;10.70;99.90
18169;DHT22;49877;50.398;30.324;2022-10-04T08:48:24;10.70;99.90
18169;DHT22;49877;50.398;30.324;2022-10-04T08:51:21;10.70;99.90
18169;DHT22;49877;50.398;30.324;2022-10-04T08:56:59;10.80;99.90
18169;DHT22;49877;50.398;30.324;2022-10-04T09:00:06;10.80;99.90
18169;DHT22;49877;50.398;30.324;2022-10-04T09:03:14;10.80;99.90
18169;DHT22;49877;50.398;30.324;2022-10-04T09:05:55;10.80;99.90
18169;DHT22;49877;50.398;30.324;2022-10-04T09:08:45;10.80;99.90
18169;DHT22;49877;50.398;30.324;2022-10-04T09:11:39;10.70;99.90
18169;DHT22;49877;50.398;30.324;2022-10-04T09:14:24;10.70;99.90
18169;DHT22;49877;50.398;30.324;2022-10-04T09:17:05;10.70;99.90
18169;DHT22;49877;50.398;30.324;2022-10-04T09:19:52;10.70;99.90
18169;DHT22;49877;50.398;30.324;2022-10-04T09:22:34;10.70;99.90
18169;DHT22;49877;50.398;30.324;2022-10-04T09:25:20;10.80;99.90
18169;DHT22;49877;50.398;30.324;2022-10-04T09:31:26;10.80;99.90
18169;DHT22;49877;50.398;30.324;2022-10-04T09:34:05;10.90;99.90
18169;DHT22;49877;50.398;30.324;2022-10-04T09:36:49;10.90;99.90
18169;DHT22;49877;50.398;30.324;2022-10-04T09:39:51;10.90;99.90
18169;DHT22;49877;50.398;30.324;2022-10-04T09:42:52;10.90;99.90
18169;DHT22;49877;50.398;30.324;2022-10-04T09:45:34;10.90;99.90
18169;DHT22;49877;50.398;30.324;2022-10-04T09:48:22;10.90;99.90
18169;DHT22;49877;50.398;30.324;2022-10-04T09:54:05;11.00;99.90
18169;DHT22;49877;50.398;30.324;2022-10-04T09:56:52;11.00;99.90
18169;DHT22;49877;50.398;30.324;2022-10-04T09:59:57;11.00;99.90
18169;DHT22;49877;50.398;30.324;2022-10-04T10:05:43;11.10;99.90
18169;DHT22;49877;50.398;30.324;2022-10-04T10:08:17;11.00;99.90
18169;DHT22;49877;50.398;30.324;2022-10-04T10:10:55;11.00;99.90
18169;DHT22;49877;50.398;30.324;2022-10-04T10:16:55;11.00;99.90
18169;DHT22;49877;50.398;30.324;2022-10-04T10:19:51;11.00;99.90
18169;DHT22;49877;50.398;30.324;2022-10-04T10:22:36;10.90;99.90
18169;DHT22;49877;50.398;30.324;2022-10-04T10:25:25;11.00;99.90
18169;DHT22;49877;50.398;30.324;2022-10-04T10:28:11;10.90;99.90
18169;DHT22;49877;50.398;30.324;2022-10-04T10:31:00;10.90;99.90
18169;DHT22;49877;50.398;30.324;2022-10-04T10:33:59;10.90;99.90
18169;DHT22;49877;50.398;30.324;2022-10-04T10:36:50;10.90;99.90
18169;DHT22;49877;50.398;30.324;2022-10-04T10:39:49;10.90;99.90
18169;DHT22;49877;50.398;30.324;2022-10-04T10:43:06;10.80;99.90
18169;DHT22;49877;50.398;30.324;2022-10-04T10:45:55;10.90;99.90
18169;DHT22;49877;50.398;30.324;2022-10-04T10:51:46;10.90;99.90
18169;DHT22;49877;50.398;30.324;2022-10-04T10:54:40;11.00;99.90
18169;DHT22;49877;50.398;30.324;2022-10-04T10:57:22;11.00;99.90
18169;DHT22;49877;50.398;30.324;2022-10-04T11:00:16;11.00;99.90
18169;DHT22;49877;50.398;30.324;2022-10-04T11:06:08;11.10;99.90
18169;DHT22;49877;50.398;30.324;2022-10-04T11:12:01;11.20;99.90
18169;DHT22;49877;50.398;30.324;2022-10-04T11:14:52;11.20;99.90
18169;DHT22;49877;50.398;30.324;2022-10-04T11:17:59;11.30;99.90
18169;DHT22;49877;50.398;30.324;2022-10-04T11:26:54;11.30;99.90
18169;DHT22;49877;50.398;30.324;2022-10-04T11:29:46;11.30;99.90
18169;DHT22;49877;50.398;30.324;2022-10-04T11:32:57;11.40;99.90
18169;DHT22;49877;50.398;30.324;2022-10-04T11:41:44;11.50;99.90
18169;DHT22;49877;50.398;30.324;2022-10-04T11:47:40;11.50;99.90
18169;DHT22;49877;50.398;30.324;2022-10-04T11:50:19;11.50;99.90
18169;DHT22;49877;50.398;30.324;2022-10-04T11:55:57;11.50;99.90
18169;DHT22;49877;50.398;30.324;2022-10-04T11:58:41;11.50;99.90
18169;DHT22;49877;50.398;30.324;2022-10-04T12:01:29;11.60;99.90
18169;DHT22;49877;50.398;30.324;2022-10-04T12:04:39;11.60;99.90
18169;DHT22;49877;50.398;30.324;2022-10-04T12:07:26;11.60;99.90
18169;DHT22;49877;50.398;30.324;2022-10-04T12:10:08;11.60;99.90
18169;DHT22;49877;50.398;30.324;2022-10-04T12:16:18;11.80;99.90
18169;DHT22;49877;50.398;30.324;2022-10-04T12:22:06;11.80;99.90
18169;DHT22;49877;50.398;30.324;2022-10-04T12:25:04;11.90;99.90
18169;DHT22;49877;50.398;30.324;2022-10-04T12:33:38;12.10;99.90
18169;DHT22;49877;50.398;30.324;2022-10-04T12:36:27;12.10;99.90
18169;DHT22;49877;50.398;30.324;2022-10-04T12:39:12;12.10;99.90
18169;DHT22;49877;50.398;30.324;2022-10-04T12:41:49;12.10;99.90
18169;DHT22;49877;50.398;30.324;2022-10-04T12:44:27;12.10;99.90
18169;DHT22;49877;50.398;30.324;2022-10-04T12:47:21;12.00;99.90
18169;DHT22;49877;50.398;30.324;2022-10-04T12:49:55;12.10;99.90
18169;DHT22;49877;50.398;30.324;2022-10-04T12:52:28;12.00;99.90
18169;DHT22;49877;50.398;30.324;2022-10-04T12:55:08;12.10;99.90
18169;DHT22;49877;50.398;30.324;2022-10-04T12:57:44;12.10;99.90
18169;DHT22;49877;50.398;30.324;2022-10-04T13:00:17;12.10;99.90
18169;DHT22;49877;50.398;30.324;2022-10-04T13:03:14;12.10;99.90
18169;DHT22;49877;50.398;30.324;2022-10-04T13:05:53;12.00;99.90
18169;DHT22;49877;50.398;30.324;2022-10-04T13:08:39;11.90;99.90
18169;DHT22;49877;50.398;30.324;2022-10-04T13:11:23;11.90;99.90
18169;DHT22;49877;50.398;30.324;2022-10-04T13:17:05;11.80;99.90
18169;DHT22;49877;50.398;30.324;2022-10-04T13:19:45;11.70;99.90
18169;DHT22;49877;50.398;30.324;2022-10-04T13:22:26;11.60;99.90
18169;DHT22;49877;50.398;30.324;2022-10-04T13:25:06;11.60;99.90
18169;DHT22;49877;50.398;30.324;2022-10-04T13:27:42;11.50;99.90
18169;DHT22;49877;50.398;30.324;2022-10-04T13:30:17;11.50;99.90
18169;DHT22;49877;50.398;30.324;2022-10-04T13:32:54;11.40;99.90
18169;DHT22;49877;50.398;30.324;2022-10-04T13:35:25;11.40;99.90
18169;DHT22;49877;50.398;30.324;2022-10-04T13:38:18;11.40;99.90
18169;DHT22;49877;50.398;30.324;2022-10-04T13:41:02;11.30;99.90
18169;DHT22;49877;50.398;30.324;2022-10-04T13:43:43;11.30;99.90
18169;DHT22;49877;50.398;30.324;2022-10-04T13:46:24;11.30;99.90
18169;DHT22;49877;50.398;30.324;2022-10-04T13:49:03;11.20;99.90
18169;DHT22;49877;50.398;30.324;2022-10-04T13:51:48;11.10;99.90
18169;DHT22;49877;50.398;30.324;2022-10-04T13:54:45;11.10;99.90
18169;DHT22;49877;50.398;30.324;2022-10-04T13:57:41;11.00;99.90
18169;DHT22;49877;50.398;30.324;2022-10-04T14:00:13;11.00;99.90
18169;DHT22;49877;50.398;30.324;2022-10-04T14:03:15;10.90;99.90
18169;DHT22;49877;50.398;30.324;2022-10-04T14:06:31;10.80;99.90
18169;DHT22;49877;50.398;30.324;2022-10-04T14:09:39;10.80;99.90
18169;DHT22;49877;50.398;30.324;2022-10-04T14:12:29;10.70;99.90
18169;DHT22;49877;50.398;30.324;2022-10-04T14:15:19;10.70;99.90
18169;DHT22;49877;50.398;30.324;2022-10-04T14:18:13;10.70;99.90
18169;DHT22;49877;50.398;30.324;2022-10-04T14:21:27;10.60;99.90
18169;DHT22;49877;50.398;30.324;2022-10-04T14:30:14;10.60;99.90
18169;DHT22;49877;50.398;30.324;2022-10-04T14:33:20;10.50;99.90
18169;DHT22;49877;50.398;30.324;2022-10-04T14:36:00;10.50;99.90
18169;DHT22;49877;50.398;30.324;2022-10-04T14:41:58;10.50;99.90
18169;DHT22;49877;50.398;30.324;2022-10-04T14:44:48;10.40;99.90
18169;DHT22;49877;50.398;30.324;2022-10-04T14:48:00;10.40;99.90
18169;DHT22;49877;50.398;30.324;2022-10-04T14:50:42;10.40;99.90
18169;DHT22;49877;50.398;30.324;2022-10-04T14:53:20;10.50;99.90
18169;DHT22;49877;50.398;30.324;2022-10-04T14:56:18;10.40;99.90
18169;DHT22;49877;50.398;30.324;2022-10-04T14:58:58;10.40;99.90
18169;DHT22;49877;50.398;30.324;2022-10-04T15:01:29;10.40;99.90
18169;DHT22;49877;50.398;30.324;2022-10-04T15:04:16;10.40;99.90
18169;DHT22;49877;50.398;30.324;2022-10-04T15:06:48;10.40;99.90
18169;DHT22;49877;50.398;30.324;2022-10-04T15:12:21;10.40;99.90
18169;DHT22;49877;50.398;30.324;2022-10-04T15:15:15;10.30;99.90
18169;DHT22;49877;50.398;30.324;2022-10-04T15:17:55;10.40;99.90
18169;DHT22;49877;50.398;30.324;2022-10-04T15:20:27;10.40;99.90
18169;DHT22;49877;50.398;30.324;2022-10-04T15:23:05;10.40;99.90
18169;DHT22;49877;50.398;30.324;2022-10-04T15:25:39;10.30;99.90
18169;DHT22;49877;50.398;30.324;2022-10-04T15:30:57;10.40;99.90
18169;DHT22;49877;50.398;30.324;2022-10-04T15:33:34;10.40;99.90
18169;DHT22;49877;50.398;30.324;2022-10-04T15:36:32;10.30;99.90
18169;DHT22;49877;50.398;30.324;2022-10-04T15:39:19;10.30;99.90
18169;DHT22;49877;50.398;30.324;2022-10-04T15:41:50;10.30;99.90
18169;DHT22;49877;50.398;30.324;2022-10-04T15:44:46;10.30;99.90
18169;DHT22;49877;50.398;30.324;2022-10-04T15:47:21;10.30;99.90
18169;DHT22;49877;50.398;30.324;2022-10-04T15:49:58;10.30;99.90
18169;DHT22;49877;50.398;30.324;2022-10-04T15:53:10;10.30;99.90
18169;DHT22;49877;50.398;30.324;2022-10-04T15:56:04;10.30;99.90
18169;DHT22;49877;50.398;30.324;2022-10-04T15:58:51;10.30;99.90
18169;DHT22;49877;50.398;30.324;2022-10-04T16:01:40;10.30;99.90
18169;DHT22;49877;50.398;30.324;2022-10-04T16:04:33;10.30;99.90
18169;DHT22;49877;50.398;30.324;2022-10-04T16:07:34;10.30;99.90
18169;DHT22;49877;50.398;30.324;2022-10-04T16:10:18;10.30;99.90
18169;DHT22;49877;50.398;30.324;2022-10-04T16:13:21;10.30;99.90
18169;DHT22;49877;50.398;30.324;2022-10-04T16:16:15;10.30;99.90
18169;DHT22;49877;50.398;30.324;2022-10-04T16:18:52;10.20;99.90
18169;DHT22;49877;50.398;30.324;2022-10-04T16:21:29;10.20;99.90
18169;DHT22;49877;50.398;30.324;2022-10-04T16:24:39;10.20;99.90
18169;DHT22;49877;50.398;30.324;2022-10-04T16:30:04;10.20;99.90
18169;DHT22;49877;50.398;30.324;2022-10-04T16:32:39;10.20;99.90
18169;DHT22;49877;50.398;30.324;2022-10-04T16:35:16;10.20;99.90
18169;DHT22;49877;50.398;30.324;2022-10-04T16:37:57;10.20;99.90
18169;DHT22;49877;50.398;30.324;2022-10-04T16:40:34;10.20;99.90
18169;DHT22;49877;50.398;30.324;2022-10-04T16:43:06;10.10;99.90
18169;DHT22;49877;50.398;30.324;2022-10-04T16:45:42;10.10;99.90
18169;DHT22;49877;50.398;30.324;2022-10-04T16:51:21;10.20;99.90
18169;DHT22;49877;50.398;30.324;2022-10-04T16:53:55;10.20;99.90
18169;DHT22;49877;50.398;30.324;2022-10-04T16:56:25;10.20;99.90
18169;DHT22;49877;50.398;30.324;2022-10-04T16:58:56;10.10;99.90
18169;DHT22;49877;50.398;30.324;2022-10-04T17:02:01;10.10;99.90
18169;DHT22;49877;50.398;30.324;2022-10-04T17:04:47;10.10;99.90
18169;DHT22;49877;50.398;30.324;2022-10-04T17:07:34;10.20;99.90
18169;DHT22;49877;50.398;30.324;2022-10-04T17:10:16;10.20;99.90
18169;DHT22;49877;50.398;30.324;2022-10-04T17:12:50;10.10;99.90
18169;DHT22;49877;50.398;30.324;2022-10-04T17:15:40;10.10;99.90
18169;DHT22;49877;50.398;30.324;2022-10-04T17:18:16;10.20;99.90
18169;DHT22;49877;50.398;30.324;2022-10-04T17:20:50;10.20;99.90
18169;DHT22;49877;50.398;30.324;2022-10-04T17:23:33;10.20;99.90
18169;DHT22;49877;50.398;30.324;2022-10-04T17:26:15;10.20;99.90
18169;DHT22;49877;50.398;30.324;2022-10-04T17:28:50;10.20;99.90
18169;DHT22;49877;50.398;30.324;2022-10-04T17:31:26;10.20;99.90
18169;DHT22;49877;50.398;30.324;2022-10-04T17:34:03;10.20;99.90
18169;DHT22;49877;50.398;30.324;2022-10-04T17:36:36;10.20;99.90
18169;DHT22;49877;50.398;30.324;2022-10-04T17:39:16;10.20;99.90
18169;DHT22;49877;50.398;30.324;2022-10-04T17:42:02;10.30;99.90
18169;DHT22;49877;50.398;30.324;2022-10-04T17:44:45;10.20;99.90
18169;DHT22;49877;50.398;30.324;2022-10-04T17:47:16;10.20;99.90
18169;DHT22;49877;50.398;30.324;2022-10-04T17:49:54;10.10;99.90
18169;DHT22;49877;50.398;30.324;2022-10-04T17:52:42;10.10;99.90
18169;DHT22;49877;50.398;30.324;2022-10-04T17:55:35;10.10;99.90
18169;DHT22;49877;50.398;30.324;2022-10-04T17:58:13;10.10;99.90
18169;DHT22;49877;50.398;30.324;2022-10-04T18:00:49;10.10;99.90
18169;DHT22;49877;50.398;30.324;2022-10-04T18:03:19;10.10;99.90
18169;DHT22;49877;50.398;30.324;2022-10-04T18:05:51;10.10;99.90
18169;DHT22;49877;50.398;30.324;2022-10-04T18:08:31;10.10;99.90
18169;DHT22;49877;50.398;30.324;2022-10-04T18:11:02;10.10;99.90
18169;DHT22;49877;50.398;30.324;2022-10-04T18:13:36;10.10;99.90
18169;DHT22;49877;50.398;30.324;2022-10-04T18:16:13;10.00;99.90
18169;DHT22;49877;50.398;30.324;2022-10-04T18:18:43;10.10;99.90